PWSweather.com
Personal Weather Stations
Station Observations
PWSTHORN2
Thornton, Nh Usa, Thornton, NH 03285

Thornton, Nh UsaThornton, NH 03285

Lat: 43.8870699, Lon: -71.6632763

Elevation: 640

Station Type: Ambient WS 2080

High Low Average
Temperature 88.9°F31.6°C 57.7°F14.3°C 69.3°F20.7°C
Dew Point 60.0°F15.6°C 32.3°F0.2°C 42.6°F5.9°C
Winds 6.0 mph 9.7 kmh Calm Calm 1.0 mph SSW1.6 kmh SSW
Wind Gusts 21.3 mph34.3 kmh -- 4.0 mph6.4 kmh
Humidity 38% 38% 38%
Pressure 29.32 in992.9 mb 29.11 in985.8 mb -
Precipitation 0.66 in16.8 mm - -
Hour Temp Dew Point Humidity Winds Wind Gusts Pressure Precip Precip Rate Daily Precip Total
12:00 AM 63.9°F17.7°C 37.8°F3.2°C 38% Calm Calm 1.6 mph2.6 kmh 29.30 in992.2 mb 0.00 in0.0 mm 0.00 in0.0 mm 0.00 in0.0 mm
12:05 AM 63.7°F17.6°C 37.6°F3.1°C 38% Calm Calm 1.6 mph2.6 kmh 29.30 in992.2 mb 0.00 in0.0 mm 0.00 in0.0 mm 0.00 in0.0 mm
12:10 AM 63.5°F17.5°C 37.5°F3.1°C 38% Calm Calm 0.7 mph1.1 kmh 29.30 in992.2 mb 0.00 in0.0 mm 0.00 in0.0 mm 0.00 in0.0 mm
12:15 AM 63.1°F17.3°C 37.1°F2.8°C 38% Calm Calm 0.7 mph1.1 kmh 29.30 in992.2 mb 0.00 in0.0 mm 0.00 in0.0 mm 0.00 in0.0 mm
12:20 AM 63.0°F17.2°C 37.0°F2.8°C 38% Calm Calm 0.7 mph1.1 kmh 29.29 in991.9 mb 0.00 in0.0 mm 0.00 in0.0 mm 0.00 in0.0 mm
12:25 AM 62.8°F17.1°C 36.8°F2.7°C 38% 0.7 mph W1.1 kmh W 2.2 mph3.5 kmh 29.30 in992.2 mb 0.00 in0.0 mm 0.00 in0.0 mm 0.00 in0.0 mm
12:30 AM 62.6°F17.0°C 36.7°F2.6°C 38% 1.6 mph W2.6 kmh W 2.2 mph3.5 kmh 29.30 in992.2 mb 0.00 in0.0 mm 0.00 in0.0 mm 0.00 in0.0 mm
12:35 AM 62.6°F17.0°C 36.7°F2.6°C 38% 1.6 mph W2.6 kmh W 2.2 mph3.5 kmh 29.30 in992.2 mb 0.00 in0.0 mm 0.00 in0.0 mm 0.00 in0.0 mm
12:40 AM 62.4°F16.9°C 36.5°F2.5°C 38% Calm Calm 2.2 mph3.5 kmh 29.29 in991.9 mb 0.00 in0.0 mm 0.00 in0.0 mm 0.00 in0.0 mm
12:45 AM 62.2°F16.8°C 36.3°F2.4°C 38% 1.6 mph W2.6 kmh W 2.2 mph3.5 kmh 29.30 in992.2 mb 0.00 in0.0 mm 0.00 in0.0 mm 0.00 in0.0 mm
12:50 AM 62.2°F16.8°C 36.3°F2.4°C 38% Calm Calm 2.2 mph3.5 kmh 29.30 in992.2 mb 0.00 in0.0 mm 0.00 in0.0 mm 0.00 in0.0 mm
12:55 AM 62.2°F16.8°C 36.3°F2.4°C 38% Calm Calm 1.6 mph2.6 kmh 29.30 in992.2 mb 0.00 in0.0 mm 0.00 in0.0 mm 0.00 in0.0 mm
01:00 AM 62.2°F16.8°C 36.3°F2.4°C 38% Calm Calm 1.6 mph2.6 kmh 29.30 in992.2 mb 0.00 in0.0 mm 0.00 in0.0 mm 0.00 in0.0 mm
01:05 AM 62.1°F16.7°C 36.2°F2.3°C 38% Calm Calm 0.7 mph1.1 kmh 29.30 in992.2 mb 0.00 in0.0 mm 0.00 in0.0 mm 0.00 in0.0 mm
01:10 AM 61.9°F16.6°C 36.0°F2.2°C 38% 0.7 mph W1.1 kmh W 1.6 mph2.6 kmh 29.30 in992.2 mb 0.00 in0.0 mm 0.00 in0.0 mm 0.00 in0.0 mm
01:15 AM 61.5°F16.4°C 35.7°F2.1°C 38% 0.7 mph W1.1 kmh W 1.6 mph2.6 kmh 29.29 in991.9 mb 0.00 in0.0 mm 0.00 in0.0 mm 0.00 in0.0 mm
01:20 AM 61.3°F16.3°C 35.5°F1.9°C 38% Calm Calm 1.6 mph2.6 kmh 29.30 in992.2 mb 0.00 in0.0 mm 0.00 in0.0 mm 0.00 in0.0 mm
01:25 AM 61.3°F16.3°C 35.5°F1.9°C 38% Calm Calm 1.6 mph2.6 kmh 29.29 in991.9 mb 0.00 in0.0 mm 0.00 in0.0 mm 0.00 in0.0 mm
01:30 AM 61.3°F16.3°C 35.5°F1.9°C 38% Calm Calm 0.7 mph1.1 kmh 29.30 in992.2 mb 0.00 in0.0 mm 0.00 in0.0 mm 0.00 in0.0 mm
01:35 AM 61.2°F16.2°C 35.4°F1.9°C 38% 0.7 mph W1.1 kmh W 1.6 mph2.6 kmh 29.30 in992.2 mb 0.00 in0.0 mm 0.00 in0.0 mm 0.00 in0.0 mm
01:40 AM 61.2°F16.2°C 35.4°F1.9°C 38% Calm Calm 2.2 mph3.5 kmh 29.29 in991.9 mb 0.00 in0.0 mm 0.00 in0.0 mm 0.00 in0.0 mm
01:45 AM 61.0°F16.1°C 35.2°F1.8°C 38% Calm Calm 2.2 mph3.5 kmh 29.29 in991.9 mb 0.00 in0.0 mm 0.00 in0.0 mm 0.00 in0.0 mm
01:50 AM 61.0°F16.1°C 35.2°F1.8°C 38% Calm Calm 1.6 mph2.6 kmh 29.29 in991.9 mb 0.00 in0.0 mm 0.00 in0.0 mm 0.00 in0.0 mm
01:55 AM 60.8°F16.0°C 35.0°F1.7°C 38% Calm Calm 1.6 mph2.6 kmh 29.29 in991.9 mb 0.00 in0.0 mm 0.00 in0.0 mm 0.00 in0.0 mm
02:00 AM 60.4°F15.8°C 34.7°F1.5°C 38% Calm Calm -- 29.29 in991.9 mb 0.00 in0.0 mm 0.00 in0.0 mm 0.00 in0.0 mm
02:05 AM 60.4°F15.8°C 34.7°F1.5°C 38% 0.7 mph W1.1 kmh W 1.6 mph2.6 kmh 29.29 in991.9 mb 0.00 in0.0 mm 0.00 in0.0 mm 0.00 in0.0 mm
02:10 AM 60.3°F15.7°C 34.6°F1.4°C 38% Calm Calm 1.6 mph2.6 kmh 29.29 in991.9 mb 0.00 in0.0 mm 0.00 in0.0 mm 0.00 in0.0 mm
02:15 AM 60.1°F15.6°C 34.4°F1.3°C 38% Calm Calm 0.7 mph1.1 kmh 29.29 in991.9 mb 0.00 in0.0 mm 0.00 in0.0 mm 0.00 in0.0 mm
02:20 AM 60.1°F15.6°C 34.4°F1.3°C 38% Calm Calm -- 29.29 in991.9 mb 0.00 in0.0 mm 0.00 in0.0 mm 0.00 in0.0 mm
02:25 AM 59.9°F15.5°C 34.2°F1.2°C 38% 0.7 mph W1.1 kmh W 1.6 mph2.6 kmh 29.29 in991.9 mb 0.00 in0.0 mm 0.00 in0.0 mm 0.00 in0.0 mm
02:30 AM 59.7°F15.4°C 34.1°F1.2°C 38% Calm Calm 1.6 mph2.6 kmh 29.29 in991.9 mb 0.00 in0.0 mm 0.00 in0.0 mm 0.00 in0.0 mm
02:35 AM 59.5°F15.3°C 33.9°F1.1°C 38% Calm Calm 1.6 mph2.6 kmh 29.29 in991.9 mb 0.00 in0.0 mm 0.00 in0.0 mm 0.00 in0.0 mm
02:40 AM 59.5°F15.3°C 33.9°F1.1°C 38% Calm Calm 0.7 mph1.1 kmh 29.29 in991.9 mb 0.00 in0.0 mm 0.00 in0.0 mm 0.00 in0.0 mm
02:45 AM 59.5°F15.3°C 33.9°F1.1°C 38% 0.7 mph W1.1 kmh W 1.6 mph2.6 kmh 29.29 in991.9 mb 0.00 in0.0 mm 0.00 in0.0 mm 0.00 in0.0 mm
02:50 AM 59.5°F15.3°C 33.9°F1.1°C 38% 0.7 mph W1.1 kmh W 1.6 mph2.6 kmh 29.29 in991.9 mb 0.00 in0.0 mm 0.00 in0.0 mm 0.00 in0.0 mm
02:55 AM 59.7°F15.4°C 34.1°F1.2°C 38% Calm Calm 1.6 mph2.6 kmh 29.29 in991.9 mb 0.00 in0.0 mm 0.00 in0.0 mm 0.00 in0.0 mm
03:00 AM 59.5°F15.3°C 33.9°F1.1°C 38% Calm Calm 1.6 mph2.6 kmh 29.29 in991.9 mb 0.00 in0.0 mm 0.00 in0.0 mm 0.00 in0.0 mm
03:05 AM 59.4°F15.2°C 33.8°F1.0°C 38% Calm Calm 1.6 mph2.6 kmh 29.30 in992.2 mb 0.00 in0.0 mm 0.00 in0.0 mm 0.00 in0.0 mm
03:10 AM 59.2°F15.1°C 33.6°F0.9°C 38% 0.7 mph W1.1 kmh W 1.6 mph2.6 kmh 29.29 in991.9 mb 0.00 in0.0 mm 0.00 in0.0 mm 0.00 in0.0 mm
03:15 AM 59.2°F15.1°C 33.6°F0.9°C 38% Calm Calm 1.6 mph2.6 kmh 29.29 in991.9 mb 0.00 in0.0 mm 0.00 in0.0 mm 0.00 in0.0 mm
03:20 AM 59.2°F15.1°C 33.6°F0.9°C 38% Calm Calm 1.6 mph2.6 kmh 29.30 in992.2 mb 0.00 in0.0 mm 0.00 in0.0 mm 0.00 in0.0 mm
03:25 AM 59.0°F15.0°C 33.4°F0.8°C 38% Calm Calm 0.7 mph1.1 kmh 29.29 in991.9 mb 0.00 in0.0 mm 0.00 in0.0 mm 0.00 in0.0 mm
03:30 AM 59.0°F15.0°C 33.4°F0.8°C 38% Calm Calm -- 29.29 in991.9 mb 0.00 in0.0 mm 0.00 in0.0 mm 0.00 in0.0 mm
03:35 AM 59.0°F15.0°C 33.4°F0.8°C 38% Calm Calm -- 29.29 in991.9 mb 0.00 in0.0 mm 0.00 in0.0 mm 0.00 in0.0 mm
03:40 AM 58.8°F14.9°C 33.3°F0.7°C 38% Calm Calm -- 29.30 in992.2 mb 0.00 in0.0 mm 0.00 in0.0 mm 0.00 in0.0 mm
03:45 AM 58.6°F14.8°C 33.1°F0.6°C 38% Calm Calm -- 29.30 in992.2 mb 0.00 in0.0 mm 0.00 in0.0 mm 0.00 in0.0 mm
03:50 AM 58.5°F14.7°C 33.0°F0.6°C 38% Calm Calm -- 29.29 in991.9 mb 0.00 in0.0 mm 0.00 in0.0 mm 0.00 in0.0 mm
03:55 AM 58.6°F14.8°C 33.1°F0.6°C 38% Calm Calm -- 29.29 in991.9 mb 0.00 in0.0 mm 0.00 in0.0 mm 0.00 in0.0 mm
04:00 AM 58.8°F14.9°C 33.3°F0.7°C 38% Calm Calm -- 29.30 in992.2 mb 0.00 in0.0 mm 0.00 in0.0 mm 0.00 in0.0 mm
04:05 AM 58.8°F14.9°C 33.3°F0.7°C 38% Calm Calm -- 29.30 in992.2 mb 0.00 in0.0 mm 0.00 in0.0 mm 0.00 in0.0 mm
04:10 AM 58.6°F14.8°C 33.1°F0.6°C 38% Calm Calm 0.7 mph1.1 kmh 29.30 in992.2 mb 0.00 in0.0 mm 0.00 in0.0 mm 0.00 in0.0 mm
04:15 AM 58.5°F14.7°C 33.0°F0.6°C 38% Calm Calm 0.7 mph1.1 kmh 29.30 in992.2 mb 0.00 in0.0 mm 0.00 in0.0 mm 0.00 in0.0 mm
04:20 AM 58.5°F14.7°C 33.0°F0.6°C 38% Calm Calm 0.7 mph1.1 kmh 29.30 in992.2 mb 0.00 in0.0 mm 0.00 in0.0 mm 0.00 in0.0 mm
04:25 AM 58.3°F14.6°C 32.8°F0.4°C 38% Calm Calm -- 29.30 in992.2 mb 0.00 in0.0 mm 0.00 in0.0 mm 0.00 in0.0 mm
04:30 AM 58.3°F14.6°C 32.8°F0.4°C 38% Calm Calm 0.7 mph1.1 kmh 29.30 in992.2 mb 0.00 in0.0 mm 0.00 in0.0 mm 0.00 in0.0 mm
04:35 AM 57.9°F14.4°C 32.5°F0.3°C 38% 0.7 mph W1.1 kmh W 2.2 mph3.5 kmh 29.30 in992.2 mb 0.00 in0.0 mm 0.00 in0.0 mm 0.00 in0.0 mm
04:40 AM 57.7°F14.3°C 32.3°F0.2°C 38% Calm Calm 2.2 mph3.5 kmh 29.30 in992.2 mb 0.00 in0.0 mm 0.00 in0.0 mm 0.00 in0.0 mm
04:45 AM 57.9°F14.4°C 32.5°F0.3°C 38% Calm Calm 1.6 mph2.6 kmh 29.30 in992.2 mb 0.00 in0.0 mm 0.00 in0.0 mm 0.00 in0.0 mm
04:50 AM 58.1°F14.5°C 32.6°F0.3°C 38% 0.7 mph W1.1 kmh W 1.6 mph2.6 kmh 29.30 in992.2 mb 0.00 in0.0 mm 0.00 in0.0 mm 0.00 in0.0 mm
04:55 AM 58.1°F14.5°C 32.6°F0.3°C 38% Calm Calm 1.6 mph2.6 kmh 29.30 in992.2 mb 0.00 in0.0 mm 0.00 in0.0 mm 0.00 in0.0 mm
05:00 AM 57.9°F14.4°C 32.5°F0.3°C 38% Calm Calm 1.6 mph2.6 kmh 29.30 in992.2 mb 0.00 in0.0 mm 0.00 in0.0 mm 0.00 in0.0 mm
05:05 AM 57.9°F14.4°C 32.5°F0.3°C 38% 1.6 mph W2.6 kmh W 2.2 mph3.5 kmh 29.30 in992.2 mb 0.00 in0.0 mm 0.00 in0.0 mm 0.00 in0.0 mm
05:10 AM 57.7°F14.3°C 32.3°F0.2°C 38% 0.7 mph W1.1 kmh W 3.1 mph5.0 kmh 29.30 in992.2 mb 0.00 in0.0 mm 0.00 in0.0 mm 0.00 in0.0 mm
05:15 AM 57.9°F14.4°C 32.5°F0.3°C 38% 0.7 mph W1.1 kmh W 3.1 mph5.0 kmh 29.31 in992.6 mb 0.00 in0.0 mm 0.00 in0.0 mm 0.00 in0.0 mm
05:20 AM 57.7°F14.3°C 32.3°F0.2°C 38% Calm Calm 2.2 mph3.5 kmh 29.30 in992.2 mb 0.00 in0.0 mm 0.00 in0.0 mm 0.00 in0.0 mm
05:25 AM 57.9°F14.4°C 32.5°F0.3°C 38% Calm Calm 1.6 mph2.6 kmh 29.30 in992.2 mb 0.00 in0.0 mm 0.00 in0.0 mm 0.00 in0.0 mm
05:30 AM 57.9°F14.4°C 32.5°F0.3°C 38% Calm Calm 0.7 mph1.1 kmh 29.30 in992.2 mb 0.00 in0.0 mm 0.00 in0.0 mm 0.00 in0.0 mm
05:35 AM 57.9°F14.4°C 32.5°F0.3°C 38% Calm Calm 0.7 mph1.1 kmh 29.31 in992.6 mb 0.00 in0.0 mm 0.00 in0.0 mm 0.00 in0.0 mm
05:40 AM 57.7°F14.3°C 32.3°F0.2°C 38% Calm Calm 0.7 mph1.1 kmh 29.30 in992.2 mb 0.00 in0.0 mm 0.00 in0.0 mm 0.00 in0.0 mm
05:45 AM 57.7°F14.3°C 32.3°F0.2°C 38% Calm Calm 0.7 mph1.1 kmh 29.30 in992.2 mb 0.00 in0.0 mm 0.00 in0.0 mm 0.00 in0.0 mm
05:50 AM 57.7°F14.3°C 32.3°F0.2°C 38% Calm Calm 0.7 mph1.1 kmh 29.30 in992.2 mb 0.00 in0.0 mm 0.00 in0.0 mm 0.00 in0.0 mm
05:55 AM 57.7°F14.3°C 32.3°F0.2°C 38% Calm Calm 0.7 mph1.1 kmh 29.31 in992.6 mb 0.00 in0.0 mm 0.00 in0.0 mm 0.00 in0.0 mm
06:00 AM 57.7°F14.3°C 32.3°F0.2°C 38% Calm Calm -- 29.30 in992.2 mb 0.00 in0.0 mm 0.00 in0.0 mm 0.00 in0.0 mm
06:05 AM 58.1°F14.5°C 32.6°F0.3°C 38% Calm Calm 0.7 mph1.1 kmh 29.31 in992.6 mb 0.00 in0.0 mm 0.00 in0.0 mm 0.00 in0.0 mm
06:10 AM 58.1°F14.5°C 32.6°F0.3°C 38% Calm Calm 0.7 mph1.1 kmh 29.31 in992.6 mb 0.00 in0.0 mm 0.00 in0.0 mm 0.00 in0.0 mm
06:15 AM 58.1°F14.5°C 32.6°F0.3°C 38% Calm Calm -- 29.31 in992.6 mb 0.00 in0.0 mm 0.00 in0.0 mm 0.00 in0.0 mm
06:20 AM 58.3°F14.6°C 32.8°F0.4°C 38% Calm Calm -- 29.31 in992.6 mb 0.00 in0.0 mm 0.00 in0.0 mm 0.00 in0.0 mm
06:25 AM 58.5°F14.7°C 33.0°F0.6°C 38% Calm Calm -- 29.31 in992.6 mb 0.00 in0.0 mm 0.00 in0.0 mm 0.00 in0.0 mm
06:30 AM 58.8°F14.9°C 33.3°F0.7°C 38% Calm Calm -- 29.31 in992.6 mb 0.00 in0.0 mm 0.00 in0.0 mm 0.00 in0.0 mm
06:35 AM 59.0°F15.0°C 33.4°F0.8°C 38% Calm Calm -- 29.32 in992.9 mb 0.00 in0.0 mm 0.00 in0.0 mm 0.00 in0.0 mm
06:40 AM 59.4°F15.2°C 33.8°F1.0°C 38% Calm Calm -- 29.31 in992.6 mb 0.00 in0.0 mm 0.00 in0.0 mm 0.00 in0.0 mm
06:45 AM 59.9°F15.5°C 34.2°F1.2°C 38% Calm Calm -- 29.31 in992.6 mb 0.00 in0.0 mm 0.00 in0.0 mm 0.00 in0.0 mm
06:50 AM 60.6°F15.9°C 34.9°F1.6°C 38% Calm Calm 0.7 mph1.1 kmh 29.31 in992.6 mb 0.00 in0.0 mm 0.00 in0.0 mm 0.00 in0.0 mm
06:55 AM 60.6°F15.9°C 34.9°F1.6°C 38% Calm Calm 0.7 mph1.1 kmh 29.31 in992.6 mb 0.00 in0.0 mm 0.00 in0.0 mm 0.00 in0.0 mm
07:00 AM 60.8°F16.0°C 35.0°F1.7°C 38% Calm Calm -- 29.31 in992.6 mb 0.00 in0.0 mm 0.00 in0.0 mm 0.00 in0.0 mm
07:05 AM 61.0°F16.1°C 35.2°F1.8°C 38% Calm Calm -- 29.31 in992.6 mb 0.00 in0.0 mm 0.00 in0.0 mm 0.00 in0.0 mm
07:10 AM 61.2°F16.2°C 35.4°F1.9°C 38% Calm Calm -- 29.31 in992.6 mb 0.00 in0.0 mm 0.00 in0.0 mm 0.00 in0.0 mm
07:15 AM 61.3°F16.3°C 35.5°F1.9°C 38% Calm Calm 0.7 mph1.1 kmh 29.31 in992.6 mb 0.00 in0.0 mm 0.00 in0.0 mm 0.00 in0.0 mm
07:20 AM 61.5°F16.4°C 35.7°F2.1°C 38% Calm Calm 0.7 mph1.1 kmh 29.31 in992.6 mb 0.00 in0.0 mm 0.00 in0.0 mm 0.00 in0.0 mm
07:25 AM 61.9°F16.6°C 36.0°F2.2°C 38% Calm Calm 0.7 mph1.1 kmh 29.31 in992.6 mb 0.00 in0.0 mm 0.00 in0.0 mm 0.00 in0.0 mm
07:30 AM 62.2°F16.8°C 36.3°F2.4°C 38% Calm Calm 0.7 mph1.1 kmh 29.30 in992.2 mb 0.00 in0.0 mm 0.00 in0.0 mm 0.00 in0.0 mm
07:35 AM 62.4°F16.9°C 36.5°F2.5°C 38% 0.7 mph W1.1 kmh W 1.6 mph2.6 kmh 29.30 in992.2 mb 0.00 in0.0 mm 0.00 in0.0 mm 0.00 in0.0 mm
07:40 AM 62.8°F17.1°C 36.8°F2.7°C 38% Calm Calm 1.6 mph2.6 kmh 29.31 in992.6 mb 0.00 in0.0 mm 0.00 in0.0 mm 0.00 in0.0 mm
07:45 AM 63.1°F17.3°C 37.1°F2.8°C 38% Calm Calm 1.6 mph2.6 kmh 29.30 in992.2 mb 0.00 in0.0 mm 0.00 in0.0 mm 0.00 in0.0 mm
07:50 AM 63.5°F17.5°C 37.5°F3.1°C 38% 1.6 mph W2.6 kmh W 2.2 mph3.5 kmh 29.30 in992.2 mb 0.00 in0.0 mm 0.00 in0.0 mm 0.00 in0.0 mm
07:55 AM 63.7°F17.6°C 37.6°F3.1°C 38% Calm Calm 2.2 mph3.5 kmh 29.30 in992.2 mb 0.00 in0.0 mm 0.00 in0.0 mm 0.00 in0.0 mm
08:00 AM 64.2°F17.9°C 38.1°F3.4°C 38% 0.7 mph W1.1 kmh W 2.2 mph3.5 kmh 29.30 in992.2 mb 0.00 in0.0 mm 0.00 in0.0 mm 0.00 in0.0 mm
08:05 AM 64.6°F18.1°C 38.4°F3.6°C 38% 0.7 mph W1.1 kmh W 1.6 mph2.6 kmh 29.30 in992.2 mb 0.00 in0.0 mm 0.00 in0.0 mm 0.00 in0.0 mm
08:10 AM 65.1°F18.4°C 38.9°F3.8°C 38% 0.7 mph W1.1 kmh W 2.2 mph3.5 kmh 29.30 in992.2 mb 0.00 in0.0 mm 0.00 in0.0 mm 0.00 in0.0 mm
08:15 AM 65.7°F18.7°C 39.4°F4.1°C 38% 0.7 mph W1.1 kmh W 2.2 mph3.5 kmh 29.30 in992.2 mb 0.00 in0.0 mm 0.00 in0.0 mm 0.00 in0.0 mm
08:20 AM 66.9°F19.4°C 40.5°F4.7°C 38% Calm Calm 1.6 mph2.6 kmh 29.30 in992.2 mb 0.00 in0.0 mm 0.00 in0.0 mm 0.00 in0.0 mm
08:25 AM 67.5°F19.7°C 41.0°F5.0°C 38% 0.7 mph W1.1 kmh W 1.6 mph2.6 kmh 29.30 in992.2 mb 0.00 in0.0 mm 0.00 in0.0 mm 0.00 in0.0 mm
08:30 AM 67.6°F19.8°C 41.1°F5.1°C 38% Calm Calm 1.6 mph2.6 kmh 29.30 in992.2 mb 0.00 in0.0 mm 0.00 in0.0 mm 0.00 in0.0 mm
08:35 AM 68.2°F20.1°C 41.6°F5.3°C 38% Calm Calm 1.6 mph2.6 kmh 29.29 in991.9 mb 0.00 in0.0 mm 0.00 in0.0 mm 0.00 in0.0 mm
08:40 AM 68.5°F20.3°C 41.9°F5.5°C 38% Calm Calm 0.7 mph1.1 kmh 29.29 in991.9 mb 0.00 in0.0 mm 0.00 in0.0 mm 0.00 in0.0 mm
08:45 AM 69.1°F20.6°C 42.4°F5.8°C 38% 0.7 mph W1.1 kmh W 2.2 mph3.5 kmh 29.29 in991.9 mb 0.00 in0.0 mm 0.00 in0.0 mm 0.00 in0.0 mm
08:50 AM 69.3°F20.7°C 42.6°F5.9°C 38% 0.7 mph W1.1 kmh W 2.2 mph3.5 kmh 29.29 in991.9 mb 0.00 in0.0 mm 0.00 in0.0 mm 0.00 in0.0 mm
08:55 AM 69.4°F20.8°C 42.8°F6.0°C 38% 0.7 mph W1.1 kmh W 2.2 mph3.5 kmh 29.29 in991.9 mb 0.00 in0.0 mm 0.00 in0.0 mm 0.00 in0.0 mm
09:00 AM 69.8°F21.0°C 43.1°F6.2°C 38% Calm Calm 2.2 mph3.5 kmh 29.29 in991.9 mb 0.00 in0.0 mm 0.00 in0.0 mm 0.00 in0.0 mm
09:05 AM 70.3°F21.3°C 43.6°F6.4°C 38% 1.6 mph W2.6 kmh W 2.2 mph3.5 kmh 29.29 in991.9 mb 0.00 in0.0 mm 0.00 in0.0 mm 0.00 in0.0 mm
09:10 AM 71.1°F21.7°C 44.2°F6.8°C 38% 0.7 mph W1.1 kmh W 3.1 mph5.0 kmh 29.28 in991.5 mb 0.00 in0.0 mm 0.00 in0.0 mm 0.00 in0.0 mm
09:15 AM 71.8°F22.1°C 44.8°F7.1°C 38% 2.2 mph W3.5 kmh W 3.8 mph6.1 kmh 29.28 in991.5 mb 0.00 in0.0 mm 0.00 in0.0 mm 0.00 in0.0 mm
09:20 AM 72.1°F22.3°C 45.2°F7.3°C 38% 0.7 mph W1.1 kmh W 3.8 mph6.1 kmh 29.28 in991.5 mb 0.00 in0.0 mm 0.00 in0.0 mm 0.00 in0.0 mm
09:25 AM 73.2°F22.9°C 46.1°F7.8°C 38% 1.6 mph W2.6 kmh W 3.8 mph6.1 kmh 29.28 in991.5 mb 0.00 in0.0 mm 0.00 in0.0 mm 0.00 in0.0 mm
09:30 AM 72.9°F22.7°C 45.8°F7.7°C 38% 0.7 mph W1.1 kmh W 3.8 mph6.1 kmh 29.27 in991.2 mb 0.00 in0.0 mm 0.00 in0.0 mm 0.00 in0.0 mm
09:35 AM 73.8°F23.2°C 46.6°F8.1°C 38% 0.7 mph W1.1 kmh W 3.8 mph6.1 kmh 29.28 in991.5 mb 0.00 in0.0 mm 0.00 in0.0 mm 0.00 in0.0 mm
09:40 AM 73.6°F23.1°C 46.4°F8.0°C 38% 0.7 mph W1.1 kmh W 3.8 mph6.1 kmh 29.28 in991.5 mb 0.00 in0.0 mm 0.00 in0.0 mm 0.00 in0.0 mm
09:45 AM 73.8°F23.2°C 46.6°F8.1°C 38% 1.6 mph W2.6 kmh W 3.8 mph6.1 kmh 29.28 in991.5 mb 0.00 in0.0 mm 0.00 in0.0 mm 0.00 in0.0 mm
09:50 AM 74.8°F23.8°C 47.6°F8.7°C 38% Calm Calm 3.1 mph5.0 kmh 29.28 in991.5 mb 0.00 in0.0 mm 0.00 in0.0 mm 0.00 in0.0 mm
09:55 AM 75.7°F24.3°C 48.4°F9.1°C 38% Calm Calm 3.1 mph5.0 kmh 29.27 in991.2 mb 0.00 in0.0 mm 0.00 in0.0 mm 0.00 in0.0 mm
10:00 AM 75.7°F24.3°C 48.4°F9.1°C 38% 0.7 mph W1.1 kmh W 2.2 mph3.5 kmh 29.27 in991.2 mb 0.00 in0.0 mm 0.00 in0.0 mm 0.00 in0.0 mm
10:05 AM 75.0°F23.9°C 47.7°F8.7°C 38% 1.6 mph W2.6 kmh W 2.2 mph3.5 kmh 29.28 in991.5 mb 0.00 in0.0 mm 0.00 in0.0 mm 0.00 in0.0 mm
10:10 AM 74.5°F23.6°C 47.2°F8.4°C 38% Calm Calm 2.2 mph3.5 kmh 29.27 in991.2 mb 0.00 in0.0 mm 0.00 in0.0 mm 0.00 in0.0 mm
10:15 AM 75.7°F24.3°C 48.4°F9.1°C 38% 1.6 mph W2.6 kmh W 2.2 mph3.5 kmh 29.27 in991.2 mb 0.00 in0.0 mm 0.00 in0.0 mm 0.00 in0.0 mm
10:20 AM 76.3°F24.6°C 48.8°F9.3°C 38% 3.1 mph W5.0 kmh W 4.5 mph7.2 kmh 29.27 in991.2 mb 0.00 in0.0 mm 0.00 in0.0 mm 0.00 in0.0 mm
10:25 AM 76.1°F24.5°C 48.7°F9.3°C 38% 2.2 mph W3.5 kmh W 4.5 mph7.2 kmh 29.27 in991.2 mb 0.00 in0.0 mm 0.00 in0.0 mm 0.00 in0.0 mm
10:30 AM 75.4°F24.1°C 48.0°F8.9°C 38% 0.7 mph W1.1 kmh W 4.5 mph7.2 kmh 29.26 in990.9 mb 0.00 in0.0 mm 0.00 in0.0 mm 0.00 in0.0 mm
10:35 AM 75.7°F24.3°C 48.4°F9.1°C 38% 2.2 mph W3.5 kmh W 3.1 mph5.0 kmh 29.27 in991.2 mb 0.00 in0.0 mm 0.00 in0.0 mm 0.00 in0.0 mm
10:40 AM 76.3°F24.6°C 48.8°F9.3°C 38% 1.6 mph W2.6 kmh W 3.1 mph5.0 kmh 29.27 in991.2 mb 0.00 in0.0 mm 0.00 in0.0 mm 0.00 in0.0 mm
10:45 AM 78.3°F25.7°C 50.6°F10.3°C 38% Calm Calm 3.8 mph6.1 kmh 29.26 in990.9 mb 0.00 in0.0 mm 0.00 in0.0 mm 0.00 in0.0 mm
10:50 AM 78.3°F25.7°C 50.6°F10.3°C 38% 0.7 mph W1.1 kmh W 4.5 mph7.2 kmh 29.26 in990.9 mb 0.00 in0.0 mm 0.00 in0.0 mm 0.00 in0.0 mm
10:55 AM 77.5°F25.3°C 50.0°F10.0°C 38% 1.6 mph W2.6 kmh W 4.5 mph7.2 kmh 29.25 in990.5 mb 0.00 in0.0 mm 0.00 in0.0 mm 0.00 in0.0 mm
11:00 AM 78.8°F26.0°C 51.1°F10.6°C 38% 3.1 mph W5.0 kmh W 4.5 mph7.2 kmh 29.26 in990.9 mb 0.00 in0.0 mm 0.00 in0.0 mm 0.00 in0.0 mm
11:05 AM 78.1°F25.6°C 50.4°F10.2°C 38% 0.7 mph W1.1 kmh W 5.4 mph8.7 kmh 29.25 in990.5 mb 0.00 in0.0 mm 0.00 in0.0 mm 0.00 in0.0 mm
11:10 AM 78.4°F25.8°C 50.8°F10.4°C 38% 3.8 mph W6.1 kmh W 5.4 mph8.7 kmh 29.25 in990.5 mb 0.00 in0.0 mm 0.00 in0.0 mm 0.00 in0.0 mm
11:15 AM 78.1°F25.6°C 50.4°F10.2°C 38% Calm Calm 4.5 mph7.2 kmh 29.25 in990.5 mb 0.00 in0.0 mm 0.00 in0.0 mm 0.00 in0.0 mm
11:20 AM 79.3°F26.3°C 51.6°F10.9°C 38% 0.7 mph W1.1 kmh W 4.5 mph7.2 kmh 29.25 in990.5 mb 0.00 in0.0 mm 0.00 in0.0 mm 0.00 in0.0 mm
11:25 AM 79.7°F26.5°C 51.9°F11.1°C 38% Calm Calm 3.1 mph5.0 kmh 29.25 in990.5 mb 0.00 in0.0 mm 0.00 in0.0 mm 0.00 in0.0 mm
11:30 AM 81.5°F27.5°C 53.5°F11.9°C 38% 1.6 mph W2.6 kmh W 5.4 mph8.7 kmh 29.25 in990.5 mb 0.00 in0.0 mm 0.00 in0.0 mm 0.00 in0.0 mm
11:35 AM 81.1°F27.3°C 53.2°F11.8°C 38% 0.7 mph W1.1 kmh W 5.4 mph8.7 kmh 29.24 in990.2 mb 0.00 in0.0 mm 0.00 in0.0 mm 0.00 in0.0 mm
11:40 AM 80.4°F26.9°C 52.5°F11.4°C 38% 1.6 mph W2.6 kmh W 4.5 mph7.2 kmh 29.24 in990.2 mb 0.00 in0.0 mm 0.00 in0.0 mm 0.00 in0.0 mm
11:45 AM 79.9°F26.6°C 52.0°F11.1°C 38% 0.7 mph W1.1 kmh W 6.0 mph9.7 kmh 29.24 in990.2 mb 0.00 in0.0 mm 0.00 in0.0 mm 0.00 in0.0 mm
11:50 AM 79.9°F26.6°C 52.0°F11.1°C 38% 3.8 mph W6.1 kmh W 6.0 mph9.7 kmh 29.23 in989.8 mb 0.00 in0.0 mm 0.00 in0.0 mm 0.00 in0.0 mm
11:55 AM 79.5°F26.4°C 51.7°F10.9°C 38% 3.8 mph W6.1 kmh W 6.9 mph11.1 kmh 29.24 in990.2 mb 0.00 in0.0 mm 0.00 in0.0 mm 0.00 in0.0 mm
12:00 PM 79.0°F26.1°C 51.2°F10.7°C 38% 1.6 mph W2.6 kmh W 8.3 mph13.4 kmh 29.23 in989.8 mb 0.00 in0.0 mm 0.00 in0.0 mm 0.00 in0.0 mm
12:05 PM 79.3°F26.3°C 51.6°F10.9°C 38% 2.2 mph W3.5 kmh W 8.3 mph13.4 kmh 29.23 in989.8 mb 0.00 in0.0 mm 0.00 in0.0 mm 0.00 in0.0 mm
12:10 PM 80.2°F26.8°C 52.4°F11.3°C 38% 3.1 mph W5.0 kmh W 7.6 mph12.2 kmh 29.23 in989.8 mb 0.00 in0.0 mm 0.00 in0.0 mm 0.00 in0.0 mm
12:15 PM 80.1°F26.7°C 52.2°F11.2°C 38% 4.5 mph W7.2 kmh W 7.6 mph12.2 kmh 29.23 in989.8 mb 0.00 in0.0 mm 0.00 in0.0 mm 0.00 in0.0 mm
12:20 PM 79.7°F26.5°C 51.9°F11.1°C 38% 2.2 mph W3.5 kmh W 7.6 mph12.2 kmh 29.23 in989.8 mb 0.00 in0.0 mm 0.00 in0.0 mm 0.00 in0.0 mm
12:25 PM 80.4°F26.9°C 52.5°F11.4°C 38% 6.0 mph NW9.7 kmh NW 7.6 mph12.2 kmh 29.24 in990.2 mb 0.00 in0.0 mm 0.00 in0.0 mm 0.00 in0.0 mm
12:30 PM 79.9°F26.6°C 52.0°F11.1°C 38% 3.1 mph N5.0 kmh N 11.4 mph18.3 kmh 29.23 in989.8 mb 0.00 in0.0 mm 0.00 in0.0 mm 0.00 in0.0 mm
12:35 PM 79.7°F26.5°C 51.9°F11.1°C 38% 2.2 mph N3.5 kmh N 11.4 mph18.3 kmh 29.22 in989.5 mb 0.00 in0.0 mm 0.00 in0.0 mm 0.00 in0.0 mm
12:40 PM 80.4°F26.9°C 52.5°F11.4°C 38% 0.7 mph N1.1 kmh N 9.2 mph14.8 kmh 29.23 in989.8 mb 0.00 in0.0 mm 0.00 in0.0 mm 0.00 in0.0 mm
12:45 PM 81.0°F27.2°C 53.0°F11.7°C 38% 3.1 mph NNE5.0 kmh NNE 9.2 mph14.8 kmh 29.23 in989.8 mb 0.00 in0.0 mm 0.00 in0.0 mm 0.00 in0.0 mm
12:50 PM 80.8°F27.1°C 52.8°F11.6°C 38% 1.6 mph NE2.6 kmh NE 7.6 mph12.2 kmh 29.22 in989.5 mb 0.00 in0.0 mm 0.00 in0.0 mm 0.00 in0.0 mm
12:55 PM 81.3°F27.4°C 53.3°F11.8°C 38% 2.2 mph NE3.5 kmh NE 7.6 mph12.2 kmh 29.22 in989.5 mb 0.00 in0.0 mm 0.00 in0.0 mm 0.00 in0.0 mm
01:00 PM 81.9°F27.7°C 53.8°F12.1°C 38% 2.2 mph ENE3.5 kmh ENE 5.4 mph8.7 kmh 29.22 in989.5 mb 0.00 in0.0 mm 0.00 in0.0 mm 0.00 in0.0 mm
01:05 PM 81.0°F27.2°C 53.0°F11.7°C 38% 3.1 mph ENE5.0 kmh ENE 6.0 mph9.7 kmh 29.23 in989.8 mb 0.00 in0.0 mm 0.00 in0.0 mm 0.00 in0.0 mm
01:10 PM 80.4°F26.9°C 52.5°F11.4°C 38% 0.7 mph ENE1.1 kmh ENE 6.9 mph11.1 kmh 29.22 in989.5 mb 0.00 in0.0 mm 0.00 in0.0 mm 0.00 in0.0 mm
01:15 PM 80.6°F27.0°C 52.7°F11.5°C 38% Calm Calm 6.9 mph11.1 kmh 29.22 in989.5 mb 0.00 in0.0 mm 0.00 in0.0 mm 0.00 in0.0 mm
01:20 PM 81.5°F27.5°C 53.5°F11.9°C 38% 2.2 mph NE3.5 kmh NE 5.4 mph8.7 kmh 29.22 in989.5 mb 0.00 in0.0 mm 0.00 in0.0 mm 0.00 in0.0 mm
01:25 PM 80.6°F27.0°C 52.7°F11.5°C 38% 1.6 mph WNW2.6 kmh WNW 6.0 mph9.7 kmh 29.23 in989.8 mb 0.00 in0.0 mm 0.00 in0.0 mm 0.00 in0.0 mm
01:30 PM 81.5°F27.5°C 53.5°F11.9°C 38% 2.2 mph W3.5 kmh W 6.0 mph9.7 kmh 29.22 in989.5 mb 0.00 in0.0 mm 0.00 in0.0 mm 0.00 in0.0 mm
01:35 PM 82.0°F27.8°C 54.0°F12.2°C 38% 0.7 mph W1.1 kmh W 4.5 mph7.2 kmh 29.21 in989.2 mb 0.00 in0.0 mm 0.00 in0.0 mm 0.00 in0.0 mm
01:40 PM 82.6°F28.1°C 54.4°F12.4°C 38% 1.6 mph W2.6 kmh W 3.1 mph5.0 kmh 29.21 in989.2 mb 0.00 in0.0 mm 0.00 in0.0 mm 0.00 in0.0 mm
01:45 PM 82.9°F28.3°C 54.8°F12.7°C 38% 0.7 mph W1.1 kmh W 3.8 mph6.1 kmh 29.21 in989.2 mb 0.00 in0.0 mm 0.00 in0.0 mm 0.00 in0.0 mm
01:50 PM 84.9°F29.4°C 56.5°F13.6°C 38% Calm Calm 3.8 mph6.1 kmh 29.21 in989.2 mb 0.00 in0.0 mm 0.00 in0.0 mm 0.00 in0.0 mm
01:55 PM 85.3°F29.6°C 56.8°F13.8°C 38% 3.1 mph W5.0 kmh W 7.6 mph12.2 kmh 29.20 in988.8 mb 0.00 in0.0 mm 0.00 in0.0 mm 0.00 in0.0 mm
02:00 PM 86.9°F30.5°C 58.3°F14.6°C 38% 2.2 mph W3.5 kmh W 7.6 mph12.2 kmh 29.21 in989.2 mb 0.00 in0.0 mm 0.00 in0.0 mm 0.00 in0.0 mm
02:05 PM 87.4°F30.8°C 58.8°F14.9°C 38% 1.6 mph W2.6 kmh W 9.2 mph14.8 kmh 29.20 in988.8 mb 0.00 in0.0 mm 0.00 in0.0 mm 0.00 in0.0 mm
02:10 PM 88.9°F31.6°C 60.0°F15.6°C 38% 3.8 mph W6.1 kmh W 9.2 mph14.8 kmh 29.20 in988.8 mb 0.00 in0.0 mm 0.00 in0.0 mm 0.00 in0.0 mm
02:15 PM 86.9°F30.5°C 58.3°F14.6°C 38% 2.2 mph W3.5 kmh W 9.8 mph15.8 kmh 29.20 in988.8 mb 0.00 in0.0 mm 0.00 in0.0 mm 0.00 in0.0 mm
02:20 PM 85.8°F29.9°C 57.3°F14.1°C 38% 1.6 mph W2.6 kmh W 9.8 mph15.8 kmh 29.20 in988.8 mb 0.00 in0.0 mm 0.00 in0.0 mm 0.00 in0.0 mm
02:25 PM 86.0°F30.0°C 57.5°F14.2°C 38% 6.0 mph WNW9.7 kmh WNW 7.6 mph12.2 kmh 29.20 in988.8 mb 0.00 in0.0 mm 0.00 in0.0 mm 0.00 in0.0 mm
02:30 PM 84.9°F29.4°C 56.5°F13.6°C 38% 3.8 mph NW6.1 kmh NW 9.2 mph14.8 kmh 29.19 in988.5 mb 0.00 in0.0 mm 0.00 in0.0 mm 0.00 in0.0 mm
02:35 PM 85.5°F29.7°C 57.0°F13.9°C 38% 6.0 mph NW9.7 kmh NW 9.2 mph14.8 kmh 29.19 in988.5 mb 0.00 in0.0 mm 0.00 in0.0 mm 0.00 in0.0 mm
02:40 PM 84.7°F29.3°C 56.4°F13.6°C 38% 1.6 mph NW2.6 kmh NW 11.4 mph18.3 kmh 29.19 in988.5 mb 0.00 in0.0 mm 0.00 in0.0 mm 0.00 in0.0 mm
02:45 PM 84.4°F29.1°C 56.0°F13.3°C 38% 1.6 mph NW2.6 kmh NW 11.4 mph18.3 kmh 29.18 in988.1 mb 0.00 in0.0 mm 0.00 in0.0 mm 0.00 in0.0 mm
02:50 PM 83.7°F28.7°C 55.4°F13.0°C 38% 0.7 mph NW1.1 kmh NW 6.0 mph9.7 kmh 29.18 in988.1 mb 0.00 in0.0 mm 0.00 in0.0 mm 0.00 in0.0 mm
02:55 PM 83.3°F28.5°C 55.1°F12.8°C 38% 2.2 mph NW3.5 kmh NW 6.0 mph9.7 kmh 29.18 in988.1 mb 0.00 in0.0 mm 0.00 in0.0 mm 0.00 in0.0 mm
03:00 PM 83.1°F28.4°C 54.9°F12.7°C 38% 2.2 mph NW3.5 kmh NW 9.2 mph14.8 kmh 29.18 in988.1 mb 0.00 in0.0 mm 0.00 in0.0 mm 0.00 in0.0 mm
03:05 PM 83.8°F28.8°C 55.6°F13.1°C 38% 3.8 mph NW6.1 kmh NW 9.2 mph14.8 kmh 29.19 in988.5 mb 0.00 in0.0 mm 0.00 in0.0 mm 0.00 in0.0 mm
03:10 PM 83.5°F28.6°C 55.2°F12.9°C 38% 4.5 mph NW7.2 kmh NW 9.2 mph14.8 kmh 29.18 in988.1 mb 0.00 in0.0 mm 0.00 in0.0 mm 0.00 in0.0 mm
03:15 PM 82.8°F28.2°C 54.6°F12.6°C 38% 2.2 mph NW3.5 kmh NW 9.2 mph14.8 kmh 29.18 in988.1 mb 0.00 in0.0 mm 0.00 in0.0 mm 0.00 in0.0 mm
03:20 PM 83.1°F28.4°C 54.9°F12.7°C 38% 0.7 mph NW1.1 kmh NW 7.6 mph12.2 kmh 29.18 in988.1 mb 0.00 in0.0 mm 0.00 in0.0 mm 0.00 in0.0 mm
03:25 PM 83.5°F28.6°C 55.2°F12.9°C 38% 2.2 mph NW3.5 kmh NW 4.5 mph7.2 kmh 29.17 in987.8 mb 0.00 in0.0 mm 0.00 in0.0 mm 0.00 in0.0 mm
03:30 PM 82.9°F28.3°C 54.8°F12.7°C 38% 2.2 mph NW3.5 kmh NW 8.3 mph13.4 kmh 29.18 in988.1 mb 0.00 in0.0 mm 0.00 in0.0 mm 0.00 in0.0 mm
03:35 PM 81.0°F27.2°C 53.0°F11.7°C 38% 2.2 mph NW3.5 kmh NW 8.3 mph13.4 kmh 29.17 in987.8 mb 0.00 in0.0 mm 0.00 in0.0 mm 0.00 in0.0 mm
03:40 PM 79.3°F26.3°C 51.6°F10.9°C 38% 1.6 mph NW2.6 kmh NW 4.5 mph7.2 kmh 29.17 in987.8 mb 0.01 in0.3 mm 0.12 in3.0 mm 0.01 in0.3 mm
03:45 PM 77.5°F25.3°C 50.0°F10.0°C 38% Calm Calm 3.1 mph5.0 kmh 29.19 in988.5 mb 0.05 in1.3 mm 0.48 in12.2 mm 0.05 in1.3 mm
03:50 PM 75.2°F24.0°C 47.9°F8.8°C 38% 3.8 mph NW6.1 kmh NW 21.3 mph34.3 kmh 29.18 in988.1 mb 0.06 in1.5 mm 0.12 in3.0 mm 0.06 in1.5 mm
03:55 PM 73.0°F22.8°C 46.0°F7.8°C 38% 3.8 mph NW6.1 kmh NW 21.3 mph34.3 kmh 29.19 in988.5 mb 0.07 in1.8 mm 0.12 in3.0 mm 0.07 in1.8 mm
04:00 PM 71.8°F22.1°C 44.8°F7.1°C 38% 0.7 mph NNW1.1 kmh NNW 13.0 mph20.9 kmh 29.19 in988.5 mb 0.08 in2.0 mm 0.01 in0.3 mm 0.08 in2.0 mm
04:05 PM 71.4°F21.9°C 44.5°F6.9°C 38% 1.6 mph N2.6 kmh N 7.6 mph12.2 kmh 29.19 in988.5 mb 0.08 in2.0 mm 0.00 in0.0 mm 0.08 in2.0 mm
04:10 PM 71.2°F21.8°C 44.4°F6.9°C 38% Calm Calm 3.1 mph5.0 kmh 29.18 in988.1 mb 0.09 in2.3 mm 0.12 in3.0 mm 0.09 in2.3 mm
04:15 PM 71.4°F21.9°C 44.5°F6.9°C 38% 0.7 mph S1.1 kmh S 2.2 mph3.5 kmh 29.18 in988.1 mb 0.11 in2.8 mm 0.24 in6.1 mm 0.11 in2.8 mm
04:20 PM 71.1°F21.7°C 44.2°F6.8°C 38% 0.7 mph S1.1 kmh S 2.2 mph3.5 kmh 29.18 in988.1 mb 0.12 in3.0 mm 0.12 in3.0 mm 0.12 in3.0 mm
04:25 PM 71.2°F21.8°C 44.4°F6.9°C 38% 3.1 mph S5.0 kmh S 3.8 mph6.1 kmh 29.17 in987.8 mb 0.12 in3.0 mm 0.00 in0.0 mm 0.12 in3.0 mm
04:30 PM 71.8°F22.1°C 44.8°F7.1°C 38% 1.6 mph SW2.6 kmh SW 3.8 mph6.1 kmh 29.17 in987.8 mb 0.12 in3.0 mm 0.00 in0.0 mm 0.12 in3.0 mm
04:35 PM 72.1°F22.3°C 45.2°F7.3°C 38% 1.6 mph SW2.6 kmh SW 3.8 mph6.1 kmh 29.17 in987.8 mb 0.12 in3.0 mm 0.00 in0.0 mm 0.12 in3.0 mm
04:40 PM 72.1°F22.3°C 45.2°F7.3°C 38% 1.6 mph SW2.6 kmh SW 2.2 mph3.5 kmh 29.17 in987.8 mb 0.09 in2.3 mm 0.00 in0.0 mm 0.12 in3.0 mm
04:45 PM 72.1°F22.3°C 45.2°F7.3°C 38% 1.6 mph SW2.6 kmh SW 2.2 mph3.5 kmh 29.17 in987.8 mb 0.08 in2.0 mm 0.00 in0.0 mm 0.13 in3.3 mm
04:50 PM 72.1°F22.3°C 45.2°F7.3°C 38% 1.6 mph SW2.6 kmh SW 3.1 mph5.0 kmh 29.18 in988.1 mb 0.11 in2.8 mm 0.36 in9.1 mm 0.17 in4.3 mm
04:55 PM 71.6°F22.0°C 44.7°F7.1°C 38% 0.7 mph SW1.1 kmh SW 3.1 mph5.0 kmh 29.17 in987.8 mb 0.11 in2.8 mm 0.00 in0.0 mm 0.18 in4.6 mm
05:00 PM 71.2°F21.8°C 44.4°F6.9°C 38% 1.6 mph SW2.6 kmh SW 2.2 mph3.5 kmh 29.18 in988.1 mb 0.13 in3.3 mm 0.02 in0.5 mm 0.21 in5.3 mm
05:05 PM 71.8°F22.1°C 44.8°F7.1°C 38% 0.7 mph SW1.1 kmh SW 2.2 mph3.5 kmh 29.17 in987.8 mb 0.17 in4.3 mm 0.48 in12.2 mm 0.25 in6.4 mm
05:10 PM 71.6°F22.0°C 44.7°F7.1°C 38% Calm Calm 3.1 mph5.0 kmh 29.17 in987.8 mb 0.18 in4.6 mm 0.12 in3.0 mm 0.27 in6.9 mm
05:15 PM 71.1°F21.7°C 44.2°F6.8°C 38% Calm Calm 3.1 mph5.0 kmh 29.17 in987.8 mb 0.18 in4.6 mm 0.00 in0.0 mm 0.28 in7.1 mm
05:20 PM 71.2°F21.8°C 44.4°F6.9°C 38% Calm Calm 1.6 mph2.6 kmh 29.17 in987.8 mb 0.19 in4.8 mm 0.12 in3.0 mm 0.31 in7.9 mm
05:25 PM 71.1°F21.7°C 44.2°F6.8°C 38% 0.7 mph SW1.1 kmh SW 1.6 mph2.6 kmh 29.17 in987.8 mb 0.22 in5.6 mm 0.36 in9.1 mm 0.34 in8.6 mm
05:30 PM 70.9°F21.6°C 44.0°F6.7°C 38% 1.6 mph SW2.6 kmh SW 2.2 mph3.5 kmh 29.18 in988.1 mb 0.30 in7.6 mm 0.96 in24.4 mm 0.41 in10.4 mm
05:35 PM 70.5°F21.4°C 43.7°F6.5°C 38% 1.6 mph SW2.6 kmh SW 3.1 mph5.0 kmh 29.17 in987.8 mb 0.40 in10.2 mm 1.20 in30.5 mm 0.52 in13.2 mm
05:40 PM 70.3°F21.3°C 43.6°F6.4°C 38% 4.5 mph SW7.2 kmh SW 6.9 mph11.1 kmh 29.16 in987.5 mb 0.50 in12.7 mm 1.20 in30.5 mm 0.61 in15.5 mm
05:45 PM 70.3°F21.3°C 43.6°F6.4°C 38% 3.8 mph SW6.1 kmh SW 6.9 mph11.1 kmh 29.16 in987.5 mb 0.52 in13.2 mm 0.24 in6.1 mm 0.65 in16.5 mm
05:50 PM 70.0°F21.1°C 43.2°F6.2°C 38% 3.8 mph SW6.1 kmh SW 6.9 mph11.1 kmh 29.17 in987.8 mb 0.48 in12.2 mm 0.00 in0.0 mm 0.65 in16.5 mm
05:55 PM 70.0°F21.1°C 43.2°F6.2°C 38% Calm Calm 6.9 mph11.1 kmh 29.17 in987.8 mb 0.47 in11.9 mm 0.00 in0.0 mm 0.65 in16.5 mm
06:00 PM 70.2°F21.2°C 43.4°F6.3°C 38% Calm Calm 6.0 mph9.7 kmh 29.17 in987.8 mb 0.43 in10.9 mm 0.00 in0.0 mm 0.65 in16.5 mm
06:05 PM 70.3°F21.3°C 43.6°F6.4°C 38% Calm Calm 2.2 mph3.5 kmh 29.16 in987.5 mb 0.40 in10.2 mm 0.00 in0.0 mm 0.65 in16.5 mm
06:10 PM 70.3°F21.3°C 43.6°F6.4°C 38% Calm Calm 1.6 mph2.6 kmh 29.16 in987.5 mb 0.38 in9.7 mm 0.00 in0.0 mm 0.65 in16.5 mm
06:15 PM 70.3°F21.3°C 43.6°F6.4°C 38% 0.7 mph SE1.1 kmh SE 1.6 mph2.6 kmh 29.16 in987.5 mb 0.37 in9.4 mm 0.00 in0.0 mm 0.65 in16.5 mm
06:20 PM 70.5°F21.4°C 43.7°F6.5°C 38% Calm Calm 1.6 mph2.6 kmh 29.16 in987.5 mb 0.34 in8.6 mm 0.00 in0.0 mm 0.65 in16.5 mm
06:25 PM 70.7°F21.5°C 43.9°F6.6°C 38% 0.7 mph SE1.1 kmh SE 1.6 mph2.6 kmh 29.16 in987.5 mb 0.28 in7.1 mm 0.00 in0.0 mm 0.65 in16.5 mm
06:30 PM 70.7°F21.5°C 43.9°F6.6°C 38% 0.7 mph SE1.1 kmh SE 1.6 mph2.6 kmh 29.16 in987.5 mb 0.24 in6.1 mm 0.00 in0.0 mm 0.65 in16.5 mm
06:35 PM 70.9°F21.6°C 44.0°F6.7°C 38% 0.7 mph SE1.1 kmh SE 2.2 mph3.5 kmh 29.15 in987.1 mb 0.13 in3.3 mm 0.00 in0.0 mm 0.65 in16.5 mm
06:40 PM 70.9°F21.6°C 44.0°F6.7°C 38% 0.7 mph SE1.1 kmh SE 2.2 mph3.5 kmh 29.15 in987.1 mb 0.04 in1.0 mm 0.00 in0.0 mm 0.65 in16.5 mm
06:45 PM 70.7°F21.5°C 43.9°F6.6°C 38% Calm Calm 2.2 mph3.5 kmh 29.15 in987.1 mb 0.00 in0.0 mm 0.00 in0.0 mm 0.65 in16.5 mm
06:50 PM 70.5°F21.4°C 43.7°F6.5°C 38% Calm Calm 2.2 mph3.5 kmh 29.15 in987.1 mb 0.00 in0.0 mm 0.00 in0.0 mm 0.65 in16.5 mm
06:55 PM 70.9°F21.6°C 44.0°F6.7°C 38% 0.7 mph SW1.1 kmh SW 1.6 mph2.6 kmh 29.15 in987.1 mb 0.00 in0.0 mm 0.00 in0.0 mm 0.65 in16.5 mm
07:00 PM 71.1°F21.7°C 44.2°F6.8°C 38% Calm Calm 1.6 mph2.6 kmh 29.14 in986.8 mb 0.00 in0.0 mm 0.00 in0.0 mm 0.65 in16.5 mm
07:05 PM 70.9°F21.6°C 44.0°F6.7°C 38% 0.7 mph SW1.1 kmh SW 2.2 mph3.5 kmh 29.14 in986.8 mb 0.00 in0.0 mm 0.00 in0.0 mm 0.65 in16.5 mm
07:10 PM 70.5°F21.4°C 43.7°F6.5°C 38% 0.7 mph SW1.1 kmh SW 2.2 mph3.5 kmh 29.14 in986.8 mb 0.00 in0.0 mm 0.00 in0.0 mm 0.65 in16.5 mm
07:15 PM 70.3°F21.3°C 43.6°F6.4°C 38% Calm Calm 3.1 mph5.0 kmh 29.14 in986.8 mb 0.00 in0.0 mm 0.00 in0.0 mm 0.65 in16.5 mm
07:20 PM 70.3°F21.3°C 43.6°F6.4°C 38% Calm Calm 3.1 mph5.0 kmh 29.14 in986.8 mb 0.01 in0.3 mm 0.12 in3.0 mm 0.66 in16.8 mm
07:25 PM 70.3°F21.3°C 43.6°F6.4°C 38% 0.7 mph SSW1.1 kmh SSW 2.2 mph3.5 kmh 29.15 in987.1 mb 0.01 in0.3 mm 0.00 in0.0 mm 0.66 in16.8 mm
07:30 PM 70.3°F21.3°C 43.6°F6.4°C 38% 0.7 mph SE1.1 kmh SE 3.1 mph5.0 kmh 29.14 in986.8 mb 0.01 in0.3 mm 0.00 in0.0 mm 0.66 in16.8 mm
07:35 PM 70.2°F21.2°C 43.4°F6.3°C 38% 0.7 mph SE1.1 kmh SE 3.1 mph5.0 kmh 29.15 in987.1 mb 0.01 in0.3 mm 0.00 in0.0 mm 0.66 in16.8 mm
07:40 PM 70.2°F21.2°C 43.4°F6.3°C 38% Calm Calm 3.1 mph5.0 kmh 29.14 in986.8 mb 0.01 in0.3 mm 0.00 in0.0 mm 0.66 in16.8 mm
07:45 PM 70.2°F21.2°C 43.4°F6.3°C 38% Calm Calm 3.1 mph5.0 kmh 29.14 in986.8 mb 0.01 in0.3 mm 0.00 in0.0 mm 0.66 in16.8 mm
07:50 PM 70.2°F21.2°C 43.4°F6.3°C 38% Calm Calm 2.2 mph3.5 kmh 29.15 in987.1 mb 0.01 in0.3 mm 0.00 in0.0 mm 0.66 in16.8 mm
07:55 PM 70.2°F21.2°C 43.4°F6.3°C 38% Calm Calm 0.7 mph1.1 kmh 29.13 in986.5 mb 0.01 in0.3 mm 0.00 in0.0 mm 0.66 in16.8 mm
08:00 PM 70.2°F21.2°C 43.4°F6.3°C 38% 1.6 mph SE2.6 kmh SE 3.1 mph5.0 kmh 29.14 in986.8 mb 0.01 in0.3 mm 0.00 in0.0 mm 0.66 in16.8 mm
08:05 PM 70.0°F21.1°C 43.2°F6.2°C 38% Calm Calm 3.1 mph5.0 kmh 29.14 in986.8 mb 0.01 in0.3 mm 0.00 in0.0 mm 0.66 in16.8 mm
08:10 PM 70.0°F21.1°C 43.2°F6.2°C 38% Calm Calm 3.1 mph5.0 kmh 29.14 in986.8 mb 0.01 in0.3 mm 0.00 in0.0 mm 0.66 in16.8 mm
08:15 PM 69.8°F21.0°C 43.1°F6.2°C 38% 2.2 mph SE3.5 kmh SE 3.8 mph6.1 kmh 29.14 in986.8 mb 0.01 in0.3 mm 0.00 in0.0 mm 0.66 in16.8 mm
08:20 PM 69.6°F20.9°C 42.9°F6.1°C 38% 1.6 mph SE2.6 kmh SE 3.8 mph6.1 kmh 29.14 in986.8 mb 0.00 in0.0 mm 0.00 in0.0 mm 0.66 in16.8 mm
08:25 PM 69.4°F20.8°C 42.8°F6.0°C 38% 0.7 mph NW1.1 kmh NW 4.5 mph7.2 kmh 29.14 in986.8 mb 0.00 in0.0 mm 0.00 in0.0 mm 0.66 in16.8 mm
08:30 PM 69.3°F20.7°C 42.6°F5.9°C 38% 2.2 mph NW3.5 kmh NW 5.4 mph8.7 kmh 29.14 in986.8 mb 0.00 in0.0 mm 0.00 in0.0 mm 0.66 in16.8 mm
08:35 PM 69.1°F20.6°C 42.4°F5.8°C 38% 6.0 mph NW9.7 kmh NW 8.3 mph13.4 kmh 29.15 in987.1 mb 0.00 in0.0 mm 0.00 in0.0 mm 0.66 in16.8 mm
08:40 PM 68.9°F20.5°C 42.3°F5.7°C 38% 0.7 mph NW1.1 kmh NW 8.3 mph13.4 kmh 29.15 in987.1 mb 0.00 in0.0 mm 0.00 in0.0 mm 0.66 in16.8 mm
08:45 PM 68.9°F20.5°C 42.3°F5.7°C 38% 2.2 mph NW3.5 kmh NW 9.2 mph14.8 kmh 29.15 in987.1 mb 0.00 in0.0 mm 0.00 in0.0 mm 0.66 in16.8 mm
08:50 PM 68.5°F20.3°C 41.9°F5.5°C 38% 0.7 mph NW1.1 kmh NW 9.2 mph14.8 kmh 29.14 in986.8 mb 0.00 in0.0 mm 0.00 in0.0 mm 0.66 in16.8 mm
08:55 PM 68.5°F20.3°C 41.9°F5.5°C 38% 0.7 mph NW1.1 kmh NW 7.6 mph12.2 kmh 29.15 in987.1 mb 0.00 in0.0 mm 0.00 in0.0 mm 0.66 in16.8 mm
09:00 PM 68.4°F20.2°C 41.8°F5.4°C 38% 3.1 mph N5.0 kmh N 7.6 mph12.2 kmh 29.14 in986.8 mb 0.00 in0.0 mm 0.00 in0.0 mm 0.66 in16.8 mm
09:05 PM 68.0°F20.0°C 41.5°F5.3°C 38% 2.2 mph N3.5 kmh N 6.0 mph9.7 kmh 29.13 in986.5 mb 0.00 in0.0 mm 0.00 in0.0 mm 0.66 in16.8 mm
09:10 PM 67.8°F19.9°C 41.3°F5.2°C 38% 5.4 mph NNW8.7 kmh NNW 7.6 mph12.2 kmh 29.14 in986.8 mb 0.00 in0.0 mm 0.00 in0.0 mm 0.66 in16.8 mm
09:15 PM 67.8°F19.9°C 41.3°F5.2°C 38% 3.1 mph NW5.0 kmh NW 9.8 mph15.8 kmh 29.16 in987.5 mb 0.00 in0.0 mm 0.00 in0.0 mm 0.66 in16.8 mm
09:20 PM 67.8°F19.9°C 41.3°F5.2°C 38% 1.6 mph NNW2.6 kmh NNW 9.8 mph15.8 kmh 29.16 in987.5 mb 0.00 in0.0 mm 0.00 in0.0 mm 0.66 in16.8 mm
09:25 PM 67.8°F19.9°C 41.3°F5.2°C 38% 0.7 mph N1.1 kmh N 6.0 mph9.7 kmh 29.15 in987.1 mb 0.00 in0.0 mm 0.00 in0.0 mm 0.66 in16.8 mm
09:30 PM 68.0°F20.0°C 41.5°F5.3°C 38% Calm Calm 3.1 mph5.0 kmh 29.15 in987.1 mb 0.00 in0.0 mm 0.00 in0.0 mm 0.66 in16.8 mm
09:35 PM 68.0°F20.0°C 41.5°F5.3°C 38% Calm Calm 2.2 mph3.5 kmh 29.16 in987.5 mb 0.00 in0.0 mm 0.00 in0.0 mm 0.66 in16.8 mm
09:40 PM 68.0°F20.0°C 41.5°F5.3°C 38% Calm Calm 1.6 mph2.6 kmh 29.16 in987.5 mb 0.00 in0.0 mm 0.00 in0.0 mm 0.66 in16.8 mm
09:45 PM 68.0°F20.0°C 41.5°F5.3°C 38% Calm Calm 1.6 mph2.6 kmh 29.15 in987.1 mb 0.00 in0.0 mm 0.00 in0.0 mm 0.66 in16.8 mm
09:50 PM 67.8°F19.9°C 41.3°F5.2°C 38% Calm Calm 1.6 mph2.6 kmh 29.16 in987.5 mb 0.00 in0.0 mm 0.00 in0.0 mm 0.66 in16.8 mm
09:55 PM 67.8°F19.9°C 41.3°F5.2°C 38% 0.7 mph N1.1 kmh N 2.2 mph3.5 kmh 29.15 in987.1 mb 0.00 in0.0 mm 0.00 in0.0 mm 0.66 in16.8 mm
10:00 PM 67.8°F19.9°C 41.3°F5.2°C 38% Calm Calm 2.2 mph3.5 kmh 29.16 in987.5 mb 0.00 in0.0 mm 0.00 in0.0 mm 0.66 in16.8 mm
10:05 PM 67.6°F19.8°C 41.1°F5.1°C 38% 1.6 mph N2.6 kmh N 2.2 mph3.5 kmh 29.15 in987.1 mb 0.00 in0.0 mm 0.00 in0.0 mm 0.66 in16.8 mm
10:10 PM 67.6°F19.8°C 41.1°F5.1°C 38% Calm Calm 2.2 mph3.5 kmh 29.15 in987.1 mb 0.00 in0.0 mm 0.00 in0.0 mm 0.66 in16.8 mm
10:15 PM 67.6°F19.8°C 41.1°F5.1°C 38% Calm Calm 2.2 mph3.5 kmh 29.15 in987.1 mb 0.00 in0.0 mm 0.00 in0.0 mm 0.66 in16.8 mm
10:20 PM 67.6°F19.8°C 41.1°F5.1°C 38% Calm Calm 3.1 mph5.0 kmh 29.16 in987.5 mb 0.00 in0.0 mm 0.00 in0.0 mm 0.66 in16.8 mm
10:25 PM 67.5°F19.7°C 41.0°F5.0°C 38% Calm Calm 3.1 mph5.0 kmh 29.15 in987.1 mb 0.00 in0.0 mm 0.00 in0.0 mm 0.66 in16.8 mm
10:30 PM 67.6°F19.8°C 41.1°F5.1°C 38% 0.7 mph N1.1 kmh N 2.2 mph3.5 kmh 29.15 in987.1 mb 0.00 in0.0 mm 0.00 in0.0 mm 0.66 in16.8 mm
10:35 PM 67.5°F19.7°C 41.0°F5.0°C 38% Calm Calm 2.2 mph3.5 kmh 29.14 in986.8 mb 0.00 in0.0 mm 0.00 in0.0 mm 0.66 in16.8 mm
10:40 PM 67.5°F19.7°C 41.0°F5.0°C 38% 0.7 mph N1.1 kmh N 2.2 mph3.5 kmh 29.14 in986.8 mb 0.00 in0.0 mm 0.00 in0.0 mm 0.66 in16.8 mm
10:45 PM 67.5°F19.7°C 41.0°F5.0°C 38% 0.7 mph N1.1 kmh N 2.2 mph3.5 kmh 29.14 in986.8 mb 0.00 in0.0 mm 0.00 in0.0 mm 0.66 in16.8 mm
10:50 PM 67.5°F19.7°C 41.0°F5.0°C 38% 0.7 mph N1.1 kmh N 2.2 mph3.5 kmh 29.14 in986.8 mb 0.00 in0.0 mm 0.00 in0.0 mm 0.66 in16.8 mm
10:55 PM 67.5°F19.7°C 41.0°F5.0°C 38% 2.2 mph N3.5 kmh N 5.4 mph8.7 kmh 29.14 in986.8 mb 0.00 in0.0 mm 0.00 in0.0 mm 0.66 in16.8 mm
11:00 PM 67.5°F19.7°C 41.0°F5.0°C 38% 3.1 mph N5.0 kmh N 9.8 mph15.8 kmh 29.13 in986.5 mb 0.00 in0.0 mm 0.00 in0.0 mm 0.66 in16.8 mm
11:05 PM 67.3°F19.6°C 40.8°F4.9°C 38% 1.6 mph N2.6 kmh N 9.8 mph15.8 kmh 29.14 in986.8 mb 0.00 in0.0 mm 0.00 in0.0 mm 0.66 in16.8 mm
11:10 PM 67.3°F19.6°C 40.8°F4.9°C 38% 0.7 mph N1.1 kmh N 5.4 mph8.7 kmh 29.13 in986.5 mb 0.00 in0.0 mm 0.00 in0.0 mm 0.66 in16.8 mm
11:15 PM 67.1°F19.5°C 40.7°F4.8°C 38% 1.6 mph N2.6 kmh N 4.5 mph7.2 kmh 29.14 in986.8 mb 0.00 in0.0 mm 0.00 in0.0 mm 0.66 in16.8 mm
11:20 PM 67.1°F19.5°C 40.7°F4.8°C 38% 2.2 mph N3.5 kmh N 7.6 mph12.2 kmh 29.12 in986.1 mb 0.00 in0.0 mm 0.00 in0.0 mm 0.66 in16.8 mm
11:25 PM 67.1°F19.5°C 40.7°F4.8°C 38% 1.6 mph N2.6 kmh N 7.6 mph12.2 kmh 29.13 in986.5 mb 0.00 in0.0 mm 0.00 in0.0 mm 0.66 in16.8 mm
11:30 PM 66.9°F19.4°C 40.5°F4.7°C 38% Calm Calm 6.0 mph9.7 kmh 29.12 in986.1 mb 0.00 in0.0 mm 0.00 in0.0 mm 0.66 in16.8 mm
11:35 PM 66.7°F19.3°C 40.3°F4.6°C 38% 2.2 mph N3.5 kmh N 6.9 mph11.1 kmh 29.12 in986.1 mb 0.00 in0.0 mm 0.00 in0.0 mm 0.66 in16.8 mm
11:40 PM 66.7°F19.3°C 40.3°F4.6°C 38% Calm Calm 6.9 mph11.1 kmh 29.13 in986.5 mb 0.00 in0.0 mm 0.00 in0.0 mm 0.66 in16.8 mm
11:50 PM 66.4°F19.1°C 40.0°F4.4°C 38% 0.7 mph N1.1 kmh N 1.6 mph2.6 kmh 29.12 in986.1 mb 0.00 in0.0 mm 0.00 in0.0 mm 0.66 in16.8 mm
11:55 PM 66.2°F19.0°C 39.9°F4.4°C 38% Calm Calm 1.6 mph2.6 kmh 29.12 in986.1 mb 0.00 in0.0 mm 0.00 in0.0 mm 0.66 in16.8 mm